Time;durP1;ratioP1;P1;durP2;ratioP2;P2;SDS_P1;SDS_P2;PMS_P1;PMS_P2;Temp;Humidity;BMP_temperature;BMP_pressure;BME280_temperature;BME280_humidity;BME280_pressure;Samples;Min_cycle;Max_cycle;Signal;HPM_P1;HPM_P2
2022/03/22 00:00:23;;;;;;;44.80;31.17;;;6.80;99.40;;;;;;4926684;28;20082;-57
2022/03/22 00:02:49;;;;;;;45.53;31.35;;;6.80;99.50;;;;;;4928599;28;20078;-57
2022/03/22 00:05:18;;;;;;;46.53;32.08;;;6.80;99.50;;;;;;4926818;28;20561;-53
2022/03/22 00:07:44;;;;;;;45.97;31.33;;;6.70;99.80;;;;;;4924536;29;20206;-58
2022/03/22 00:10:10;;;;;;;46.97;30.23;;;6.70;99.80;;;;;;4924020;29;20047;-57
2022/03/22 00:12:36;;;;;;;45.63;30.48;;;6.70;99.80;;;;;;4928040;29;20055;-57
2022/03/22 00:15:03;;;;;;;43.42;30.73;;;6.70;99.80;;;;;;4926058;28;20130;-56
2022/03/22 00:17:29;;;;;;;52.65;33.05;;;6.70;99.90;;;;;;4927420;29;20046;-55
2022/03/22 00:19:55;;;;;;;45.65;32.88;;;6.70;99.90;;;;;;4926263;29;20043;-56
2022/03/22 00:22:21;;;;;;;47.35;32.35;;;6.60;99.90;;;;;;4926142;28;20074;-56
2022/03/22 00:24:47;;;;;;;53.55;34.85;;;6.60;99.90;;;;;;4925939;29;20083;-58
2022/03/22 00:27:13;;;;;;;46.05;32.67;;;6.60;99.90;;;;;;4925940;28;20043;-55
2022/03/22 00:29:39;;;;;;;50.15;33.70;;;6.60;99.90;;;;;;4914602;29;20640;-56
2022/03/22 00:32:07;;;;;;;49.03;33.10;;;6.60;99.90;;;;;;4926849;29;20121;-57
2022/03/22 00:34:33;;;;;;;47.35;32.90;;;6.60;99.90;;;;;;4925936;29;20901;-56
2022/03/22 00:36:59;;;;;;;52.25;33.67;;;6.60;99.90;;;;;;4927072;29;20130;-56
2022/03/22 00:39:25;;;;;;;49.13;32.60;;;6.60;99.90;;;;;;4927151;29;20065;-57
2022/03/22 00:41:53;;;;;;;46.97;33.70;;;6.60;99.90;;;;;;4926011;29;20043;-57
2022/03/22 00:44:19;;;;;;;46.67;32.58;;;6.50;99.90;;;;;;4923927;29;20062;-55
2022/03/22 00:46:45;;;;;;;49.90;33.55;;;6.60;99.90;;;;;;4923949;29;20035;-56
2022/03/22 00:49:11;;;;;;;53.05;33.70;;;6.50;99.90;;;;;;4927431;28;20042;-57
2022/03/22 00:51:38;;;;;;;49.33;33.25;;;6.60;99.90;;;;;;4925552;28;20058;-56
2022/03/22 00:54:03;;;;;;;49.30;33.58;;;6.50;99.90;;;;;;4925707;28;20082;-56
2022/03/22 00:56:31;;;;;;;50.88;32.78;;;6.50;99.90;;;;;;4923413;28;20051;-56
2022/03/22 01:01:41;;;;;;;48.97;34.33;;;6.50;99.90;;;;;;4921378;28;20498;-57
2022/03/22 01:04:09;;;;;;;51.70;35.08;;;6.50;99.90;;;;;;4922552;28;20187;-56
2022/03/22 01:06:35;;;;;;;49.30;32.90;;;6.50;99.90;;;;;;4926020;28;20048;-59
2022/03/22 01:09:01;;;;;;;50.28;33.60;;;6.50;99.90;;;;;;4924930;28;20386;-55
2022/03/22 01:11:27;;;;;;;47.55;32.88;;;6.50;99.90;;;;;;4926399;29;20043;-56
2022/03/22 01:13:54;;;;;;;50.55;34.88;;;6.50;99.90;;;;;;4926479;28;20513;-56
2022/03/22 01:16:20;;;;;;;52.85;35.08;;;6.50;99.90;;;;;;4924753;28;20051;-55
2022/03/22 01:18:46;;;;;;;50.70;33.92;;;6.50;99.90;;;;;;4925276;28;20049;-57
2022/03/22 01:21:12;;;;;;;50.97;34.42;;;6.40;99.90;;;;;;4921959;29;20157;-57
2022/03/22 01:23:38;;;;;;;53.33;33.85;;;6.40;99.90;;;;;;4925370;28;20149;-56
2022/03/22 01:26:06;;;;;;;48.65;33.20;;;6.40;99.90;;;;;;4924206;29;20039;-56
2022/03/22 01:28:32;;;;;;;49.67;34.05;;;6.50;99.90;;;;;;4939094;28;20090;-57
2022/03/22 01:30:58;;;;;;;52.90;32.63;;;6.40;99.90;;;;;;4922968;29;20043;-57
2022/03/22 01:33:23;;;;;;;55.33;35.50;;;6.40;99.90;;;;;;4924907;29;20058;-54
2022/03/22 01:35:49;;;;;;;53.05;33.85;;;6.50;99.90;;;;;;4916617;29;20075;-56
2022/03/22 01:38:15;;;;;;;48.08;33.97;;;6.50;99.90;;;;;;4923392;28;20083;-57
2022/03/22 01:40:42;;;;;;;50.22;33.38;;;6.50;99.90;;;;;;4922338;29;20150;-55
2022/03/22 01:43:08;;;;;;;52.38;33.47;;;6.50;99.90;;;;;;4922053;29;20483;-57
2022/03/22 01:45:34;;;;;;;52.15;33.17;;;6.50;99.90;;;;;;4924221;28;20066;-55
2022/03/22 01:48:02;;;;;;;52.80;34.10;;;6.50;99.90;;;;;;4925154;28;20450;-56
2022/03/22 01:50:29;;;;;;;54.92;35.17;;;6.50;99.90;;;;;;4923565;29;20109;-57
2022/03/22 01:52:57;;;;;;;55.15;34.25;;;6.50;99.90;;;;;;4925397;28;20099;-57
2022/03/22 01:55:23;;;;;;;50.50;34.22;;;6.50;99.90;;;;;;4924100;28;20047;-57
2022/03/22 01:57:50;;;;;;;46.65;33.38;;;6.50;99.90;;;;;;4923790;29;20083;-53
2022/03/22 02:00:20;;;;;;;51.47;34.10;;;6.50;99.90;;;;;;4923041;29;20086;-56
2022/03/22 02:05:55;;;;;;;53.28;34.08;;;6.50;99.90;;;;;;4925608;29;20090;-58
2022/03/22 02:08:27;;;;;;;51.58;34.60;;;6.50;99.90;;;;;;4929827;29;20047;-55
2022/03/22 02:10:55;;;;;;;46.80;33.20;;;6.50;99.90;;;;;;4926209;28;20055;-56
2022/03/22 02:13:21;;;;;;;57.28;35.22;;;6.60;99.90;;;;;;4926385;28;20047;-56
2022/03/22 02:15:50;;;;;;;48.38;33.35;;;6.60;99.90;;;;;;4928863;28;20054;-56
2022/03/22 02:18:17;;;;;;;48.85;32.75;;;6.60;99.90;;;;;;4929007;29;20060;-58
2022/03/22 02:20:45;;;;;;;52.92;33.72;;;6.60;99.90;;;;;;4930719;28;20476;-58
2022/03/22 02:23:40;;;;;;;50.17;33.47;;;6.60;99.90;;;;;;4926768;28;20804;-55
2022/03/22 02:26:06;;;;;;;52.53;32.60;;;6.50;99.90;;;;;;4932017;29;20046;-57
2022/03/22 02:28:32;;;;;;;48.50;32.50;;;6.50;99.90;;;;;;4927128;29;20047;-57
2022/03/22 02:30:58;;;;;;;51.72;32.75;;;6.50;99.90;;;;;;4927199;28;20089;-56
2022/03/22 02:33:24;;;;;;;48.28;33.28;;;6.50;99.90;;;;;;4927584;29;20062;-56
2022/03/22 02:35:50;;;;;;;48.83;33.53;;;6.50;99.90;;;;;;4927471;28;20051;-56
2022/03/22 02:38:16;;;;;;;48.20;32.70;;;6.50;99.90;;;;;;4927240;29;20061;-54
2022/03/22 02:40:44;;;;;;;50.53;33.95;;;6.50;99.90;;;;;;4928020;28;20510;-55
2022/03/22 02:43:11;;;;;;;53.05;34.50;;;6.60;99.90;;;;;;4925833;28;21598;-57
2022/03/22 02:45:37;;;;;;;50.83;34.35;;;6.60;99.90;;;;;;4923300;29;20051;-56
2022/03/22 02:48:03;;;;;;;49.65;33.67;;;6.60;99.90;;;;;;4930497;29;20054;-57
2022/03/22 02:50:29;;;;;;;53.45;33.65;;;6.70;99.90;;;;;;4923276;29;20047;-57
2022/03/22 02:52:55;;;;;;;49.88;34.10;;;6.70;99.90;;;;;;4925720;28;20058;-56
2022/03/22 02:55:21;;;;;;;57.13;34.83;;;6.70;99.90;;;;;;4925989;29;20051;-56
2022/03/22 02:57:47;;;;;;;50.55;34.35;;;6.70;99.90;;;;;;4930916;28;20043;-56
2022/03/22 03:00:14;;;;;;;51.97;33.88;;;6.70;99.90;;;;;;4926480;29;20660;-55
2022/03/22 03:02:46;;;;;;;52.63;34.22;;;6.80;99.90;;;;;;4925035;29;20081;-57
2022/03/22 03:05:12;;;;;;;47.13;32.78;;;6.80;99.90;;;;;;4926951;28;20087;-55
2022/03/22 03:07:39;;;;;;;54.58;34.47;;;6.80;99.90;;;;;;4929494;29;20604;-54
2022/03/22 03:10:06;;;;;;;52.53;33.35;;;6.80;99.90;;;;;;4926091;29;20106;-57
2022/03/22 03:12:32;;;;;;;50.85;34.83;;;6.80;99.90;;;;;;4927628;29;20719;-57
2022/03/22 03:14:58;;;;;;;51.58;33.80;;;6.80;99.90;;;;;;4924348;28;20058;-56
2022/03/22 03:17:24;;;;;;;47.47;34.08;;;6.80;99.90;;;;;;4927325;28;20055;-56
2022/03/22 03:19:50;;;;;;;45.78;32.33;;;6.80;99.90;;;;;;4927198;29;20043;-56
2022/03/22 03:22:16;;;;;;;51.33;34.13;;;6.80;99.90;;;;;;4931983;28;20055;-56
2022/03/22 03:24:41;;;;;;;52.42;33.78;;;6.80;99.90;;;;;;4925938;28;20055;-55
2022/03/22 03:27:07;;;;;;;50.72;32.38;;;6.70;99.90;;;;;;4927375;28;20138;-54
2022/03/22 03:29:33;;;;;;;46.72;31.08;;;6.70;99.90;;;;;;4926110;28;20051;-58
2022/03/22 03:31:59;;;;;;;49.47;33.13;;;6.60;99.90;;;;;;4923915;29;20207;-57
2022/03/22 03:34:25;;;;;;;51.30;32.70;;;6.60;99.90;;;;;;4925170;28;20134;-56
2022/03/22 03:36:51;;;;;;;54.00;33.22;;;6.50;99.90;;;;;;4930061;28;20075;-57
2022/03/22 03:39:18;;;;;;;52.95;35.63;;;6.50;99.90;;;;;;4924515;29;20085;-57
2022/03/22 03:42:00;;;;;;;51.67;34.25;;;6.50;99.90;;;;;;4923297;29;20047;-56
2022/03/22 03:47:17;;;;;;;50.78;34.25;;;6.50;99.90;;;;;;4921538;28;20098;-57
2022/03/22 03:49:48;;;;;;;52.40;35.53;;;6.50;99.90;;;;;;4923874;28;20076;-57
2022/03/22 03:52:25;;;;;;;52.35;33.85;;;6.50;99.90;;;;;;4926329;28;20528;-55
2022/03/22 03:54:52;;;;;;;61.63;35.08;;;6.50;99.90;;;;;;4925745;29;20259;-56
2022/03/22 03:57:19;;;;;;;57.55;35.03;;;6.50;99.90;;;;;;4922573;28;20066;-56
2022/03/22 03:59:45;;;;;;;50.35;33.65;;;6.60;99.90;;;;;;4924733;28;20059;-56
2022/03/22 04:02:11;;;;;;;54.03;34.13;;;6.60;99.90;;;;;;4923920;29;20473;-57
2022/03/22 04:04:39;;;;;;;52.92;34.08;;;6.60;99.90;;;;;;4923453;28;20682;-56
2022/03/22 04:07:07;;;;;;;61.10;35.47;;;6.60;99.90;;;;;;4925000;29;20045;-56
2022/03/22 04:09:34;;;;;;;47.42;33.83;;;6.60;99.90;;;;;;4927103;29;20738;-56
2022/03/22 04:12:00;;;;;;;53.42;33.47;;;6.70;99.90;;;;;;4926301;29;20102;-56
2022/03/22 04:14:27;;;;;;;50.55;33.92;;;6.70;99.90;;;;;;4925605;28;22571;-56
2022/03/22 04:16:56;;;;;;;51.30;33.78;;;6.70;99.90;;;;;;4924322;28;20059;-57
2022/03/22 04:19:23;;;;;;;52.65;34.70;;;6.70;99.90;;;;;;4925096;28;20656;-57
2022/03/22 04:21:49;;;;;;;50.83;34.30;;;6.70;99.90;;;;;;4919530;28;20453;-56
2022/03/22 04:24:15;;;;;;;51.85;33.20;;;6.70;99.90;;;;;;4924034;28;20062;-56
2022/03/22 04:26:43;;;;;;;48.90;34.35;;;6.70;99.90;;;;;;4922956;28;20039;-56
2022/03/22 04:34:40;;;;;;;49.38;32.42;;;6.70;99.90;;;;;;4926038;29;20055;-55
2022/03/22 04:37:07;;;;;;;50.33;33.50;;;6.70;99.90;;;;;;4926841;29;20418;-55
2022/03/22 04:39:34;;;;;;;55.08;33.05;;;6.70;99.90;;;;;;4925213;28;20502;-56
2022/03/22 04:42:01;;;;;;;48.80;33.45;;;6.70;99.90;;;;;;4926984;28;20054;-57
2022/03/22 04:44:28;;;;;;;52.45;34.13;;;6.70;99.90;;;;;;4925524;28;20051;-57
2022/03/22 04:46:56;;;;;;;50.80;34.00;;;6.70;99.90;;;;;;4923485;28;20039;-57
2022/03/22 04:49:23;;;;;;;53.17;34.45;;;6.70;99.90;;;;;;4923505;28;20099;-56
2022/03/22 04:57:20;;;;;;;54.95;33.80;;;6.70;99.90;;;;;;4927936;29;20460;-56
2022/03/22 04:59:47;;;;;;;52.65;33.58;;;6.70;99.90;;;;;;4926823;29;20130;-57
2022/03/22 05:02:14;;;;;;;51.92;34.90;;;6.80;99.90;;;;;;4923033;29;20582;-57
2022/03/22 05:04:39;;;;;;;47.80;33.05;;;6.80;99.90;;;;;;4925771;28;20046;-55
2022/03/22 05:07:06;;;;;;;50.25;34.85;;;6.80;99.90;;;;;;4928631;29;20047;-56
2022/03/22 05:09:32;;;;;;;55.05;33.95;;;6.80;99.90;;;;;;4927437;28;20055;-57
2022/03/22 05:11:59;;;;;;;52.40;34.47;;;6.80;99.90;;;;;;4934161;28;20046;-58
2022/03/22 05:14:26;;;;;;;49.13;33.63;;;6.70;99.90;;;;;;4929835;29;20090;-56
2022/03/22 05:16:52;;;;;;;52.47;33.47;;;6.70;99.90;;;;;;4927363;28;20493;-56
2022/03/22 05:19:18;;;;;;;55.10;32.80;;;6.70;99.90;;;;;;4926904;29;20494;-55
2022/03/22 05:21:45;;;;;;;51.35;34.25;;;6.70;99.90;;;;;;4908289;29;20181;-55
2022/03/22 05:24:11;;;;;;;48.33;33.33;;;6.70;99.90;;;;;;4923299;29;20093;-55
2022/03/22 05:26:37;;;;;;;51.88;34.35;;;6.60;99.90;;;;;;4925662;28;20683;-58
2022/03/22 05:29:04;;;;;;;49.45;33.42;;;6.60;99.90;;;;;;4926120;28;20050;-57
2022/03/22 05:31:31;;;;;;;48.45;32.90;;;6.60;99.90;;;;;;4923972;28;20367;-57
2022/03/22 05:33:58;;;;;;;50.53;34.47;;;6.60;99.90;;;;;;4920940;29;20063;-57
2022/03/22 05:36:24;;;;;;;49.22;34.80;;;6.50;99.90;;;;;;4925413;28;20054;-56
2022/03/22 05:38:52;;;;;;;48.83;34.03;;;6.50;99.90;;;;;;4924043;28;20054;-57
2022/03/22 05:41:18;;;;;;;49.17;34.25;;;6.50;99.90;;;;;;4926063;29;20082;-54
2022/03/22 05:43:44;;;;;;;51.20;34.13;;;6.50;99.90;;;;;;4928686;28;20170;-56
2022/03/22 05:46:11;;;;;;;55.30;34.38;;;6.50;99.90;;;;;;4925110;28;20625;-53
2022/03/22 05:48:40;;;;;;;51.40;33.60;;;6.50;99.90;;;;;;4923558;29;20671;-56
2022/03/22 05:51:06;;;;;;;53.15;34.92;;;6.50;99.90;;;;;;4919561;29;20050;-57
2022/03/22 05:53:32;;;;;;;56.22;36.20;;;6.50;99.90;;;;;;4927825;29;20051;-57
2022/03/22 05:55:58;;;;;;;49.58;35.05;;;6.60;99.90;;;;;;4919010;28;20051;-52
2022/03/22 05:58:24;;;;;;;51.08;34.05;;;6.60;99.90;;;;;;4923428;29;20822;-57
2022/03/22 06:00:50;;;;;;;49.70;34.00;;;6.60;99.90;;;;;;4924116;28;20085;-57
2022/03/22 06:03:16;;;;;;;51.30;34.13;;;6.60;99.90;;;;;;4923622;29;20051;-57
2022/03/22 06:05:42;;;;;;;49.53;33.65;;;6.60;99.90;;;;;;4925277;28;20134;-55
2022/03/22 06:08:08;;;;;;;52.55;35.20;;;6.60;99.90;;;;;;4921842;28;20058;-57
2022/03/22 06:10:34;;;;;;;52.85;35.20;;;6.60;99.90;;;;;;4922116;28;20506;-56
2022/03/22 06:13:01;;;;;;;52.30;34.85;;;6.60;99.90;;;;;;4924142;28;20167;-57
2022/03/22 06:15:29;;;;;;;52.85;35.65;;;6.60;99.90;;;;;;4920290;29;20996;-56
2022/03/22 06:18:02;;;;;;;54.63;35.72;;;6.70;99.90;;;;;;4925782;29;20031;-56
2022/03/22 06:20:31;;;;;;;51.92;35.10;;;6.70;99.90;;;;;;4922646;28;20035;-57
2022/03/22 06:22:58;;;;;;;49.47;34.10;;;6.70;99.90;;;;;;4921067;29;20114;-56
2022/03/22 06:25:25;;;;;;;56.65;35.30;;;6.80;99.90;;;;;;4922044;29;20071;-57
2022/03/22 06:27:52;;;;;;;48.22;33.25;;;6.80;99.90;;;;;;4923980;28;20059;-56
2022/03/22 06:30:19;;;;;;;52.63;34.22;;;6.80;99.90;;;;;;4924738;28;20053;-56
2022/03/22 06:32:46;;;;;;;51.65;34.35;;;6.90;99.90;;;;;;4925873;28;20047;-56
2022/03/22 06:35:26;;;;;;;48.40;32.78;;;6.90;99.90;;;;;;4925844;28;20043;-56
2022/03/22 06:37:52;;;;;;;54.00;35.38;;;6.90;99.90;;;;;;4926832;29;20532;-57
2022/03/22 06:40:21;;;;;;;53.15;34.65;;;7.00;99.90;;;;;;4925158;29;20058;-56
2022/03/22 06:42:47;;;;;;;52.70;34.78;;;7.00;99.90;;;;;;4923718;29;20573;-55
2022/03/22 06:45:14;;;;;;;56.45;35.60;;;7.00;99.90;;;;;;4919695;28;21947;-57
2022/03/22 06:47:42;;;;;;;53.00;34.78;;;7.00;99.90;;;;;;4924389;28;20090;-56
2022/03/22 06:50:12;;;;;;;54.47;36.05;;;7.10;99.90;;;;;;4925558;28;20047;-56
2022/03/22 06:52:38;;;;;;;55.70;34.17;;;7.10;99.90;;;;;;4930826;29;20538;-55
2022/03/22 06:55:06;;;;;;;55.95;34.28;;;7.10;99.90;;;;;;4930964;28;20139;-57
2022/03/22 06:57:32;;;;;;;49.72;33.95;;;7.10;99.90;;;;;;4932185;29;20095;-58
2022/03/22 07:00:00;;;;;;;48.90;33.15;;;7.20;99.90;;;;;;4931207;29;20489;-57
2022/03/22 07:02:26;;;;;;;46.95;31.70;;;7.20;99.90;;;;;;4928670;28;20051;-55
2022/03/22 07:04:52;;;;;;;48.25;31.25;;;7.20;99.90;;;;;;4928453;29;20090;-57
2022/03/22 07:07:19;;;;;;;52.15;32.25;;;7.20;99.90;;;;;;4927707;28;20086;-57
2022/03/22 07:09:46;;;;;;;54.83;32.90;;;7.10;99.90;;;;;;4925366;28;20047;-57
2022/03/22 07:12:13;;;;;;;50.10;33.15;;;7.10;99.90;;;;;;4928119;29;20513;-56
2022/03/22 07:14:40;;;;;;;48.20;31.48;;;7.20;99.90;;;;;;4925657;28;20637;-57
2022/03/22 07:17:08;;;;;;;47.15;32.17;;;7.20;99.90;;;;;;4931710;28;20110;-57
2022/03/22 07:19:35;;;;;;;48.72;32.83;;;7.20;99.90;;;;;;4929623;29;20145;-57
2022/03/22 07:22:01;;;;;;;50.20;31.98;;;7.20;99.90;;;;;;4928013;28;20132;-55
2022/03/22 07:24:27;;;;;;;46.42;31.75;;;7.30;99.90;;;;;;4929231;28;20490;-57
2022/03/22 07:26:54;;;;;;;48.47;32.63;;;7.30;99.90;;;;;;4929694;28;20058;-56
2022/03/22 07:29:21;;;;;;;48.30;31.90;;;7.30;99.90;;;;;;4924403;29;20537;-56
2022/03/22 07:31:47;;;;;;;43.58;31.08;;;7.30;99.90;;;;;;4924251;28;20051;-55
2022/03/22 07:34:16;;;;;;;45.30;32.67;;;7.30;99.90;;;;;;4927310;28;20150;-56
2022/03/22 07:36:43;;;;;;;56.33;34.53;;;7.30;99.90;;;;;;4925717;28;20059;-56
2022/03/22 07:39:11;;;;;;;55.67;35.20;;;7.30;99.90;;;;;;4925927;28;20137;-57
2022/03/22 07:41:38;;;;;;;51.17;33.53;;;7.40;99.90;;;;;;4924777;29;20039;-55
2022/03/22 07:44:05;;;;;;;53.45;33.85;;;7.40;99.90;;;;;;4927926;29;20808;-57
2022/03/22 07:46:33;;;;;;;53.45;34.70;;;7.50;99.90;;;;;;4924193;28;20047;-56
2022/03/22 07:54:29;;;;;;;49.42;33.97;;;7.80;99.90;;;;;;4926109;29;20708;-56
2022/03/22 07:56:55;;;;;;;47.70;32.17;;;7.90;99.90;;;;;;4928404;28;20055;-56
2022/03/22 07:59:22;;;;;;;54.33;32.92;;;8.10;99.90;;;;;;4928621;28;20046;-58
2022/03/22 08:01:48;;;;;;;47.70;32.33;;;8.20;99.90;;;;;;4922855;28;20130;-56
2022/03/22 08:04:14;;;;;;;50.88;31.23;;;8.40;99.90;;;;;;4926252;28;21486;-57
2022/03/22 08:06:39;;;;;;;47.70;31.52;;;8.60;99.90;;;;;;4930573;28;20154;-57
2022/03/22 08:09:05;;;;;;;47.70;30.25;;;8.80;99.90;;;;;;4924348;28;20059;-57
2022/03/22 08:11:31;;;;;;;48.85;30.52;;;8.90;99.90;;;;;;4912765;29;20145;-58
2022/03/22 08:13:59;;;;;;;51.67;31.17;;;9.00;99.90;;;;;;4920788;28;20059;-57
2022/03/22 08:16:26;;;;;;;51.47;31.25;;;9.10;99.90;;;;;;4923040;29;20044;-57
2022/03/22 08:18:53;;;;;;;47.17;30.98;;;9.20;99.90;;;;;;4923036;28;20097;-56
2022/03/22 08:21:19;;;;;;;48.25;31.65;;;9.30;99.90;;;;;;4923993;28;20047;-57
2022/03/22 08:23:45;;;;;;;48.17;30.45;;;9.30;99.90;;;;;;4938829;28;20044;-57
2022/03/22 08:26:11;;;;;;;45.85;30.15;;;9.30;99.90;;;;;;4925094;29;20134;-55
2022/03/22 08:28:37;;;;;;;49.70;31.45;;;9.40;99.90;;;;;;4923842;28;20079;-57
2022/03/22 08:31:03;;;;;;;50.78;31.80;;;9.50;99.90;;;;;;4923541;28;20048;-55
2022/03/22 08:33:29;;;;;;;46.75;31.00;;;9.50;99.90;;;;;;4924406;28;20077;-56
2022/03/22 08:35:55;;;;;;;46.45;30.92;;;9.60;99.90;;;;;;4925170;28;20052;-55
2022/03/22 08:38:23;;;;;;;46.97;30.55;;;9.70;99.90;;;;;;4926722;29;20506;-56
2022/03/22 08:40:49;;;;;;;44.53;30.95;;;9.80;99.90;;;;;;4938710;28;20490;-56
2022/03/22 08:43:15;;;;;;;49.08;31.63;;;9.90;99.90;;;;;;4929501;28;20050;-55
2022/03/22 08:45:41;;;;;;;46.22;29.95;;;10.00;99.90;;;;;;4924471;28;20569;-57
2022/03/22 08:48:12;;;;;;;46.67;30.67;;;10.20;99.80;;;;;;4925695;29;20066;-55
2022/03/22 08:50:43;;;;;;;45.40;29.42;;;10.40;99.30;;;;;;4924037;28;20036;-56
2022/03/22 08:53:10;;;;;;;44.85;29.75;;;10.60;98.90;;;;;;4925264;28;20051;-56
2022/03/22 08:55:36;;;;;;;42.65;29.45;;;10.80;98.60;;;;;;4928407;29;20661;-57
2022/03/22 08:58:05;;;;;;;47.40;30.92;;;11.00;98.40;;;;;;4928550;29;20048;-57
2022/03/22 09:00:35;;;;;;;43.38;28.95;;;11.20;98.20;;;;;;4921406;29;20055;-57
2022/03/22 09:03:02;;;;;;;47.63;29.70;;;11.40;97.40;;;;;;4925791;28;20070;-57
2022/03/22 09:08:13;;;;;;;45.35;28.80;;;11.70;95.80;;;;;;4925600;28;20043;-57
2022/03/22 09:10:39;;;;;;;49.35;28.88;;;11.80;95.30;;;;;;4925370;28;20079;-58
2022/03/22 09:13:07;;;;;;;43.80;27.48;;;12.00;94.80;;;;;;4923566;28;20130;-58
2022/03/22 09:15:38;;;;;;;39.90;27.92;;;12.10;94.40;;;;;;4922895;29;20486;-57
2022/03/22 09:18:05;;;;;;;45.10;29.00;;;12.30;93.80;;;;;;4927806;29;20039;-56
2022/03/22 09:20:32;;;;;;;49.17;28.75;;;12.40;93.20;;;;;;4922913;28;20728;-55
2022/03/22 09:23:01;;;;;;;43.05;27.98;;;12.60;92.80;;;;;;4937795;28;20187;-55
2022/03/22 09:25:30;;;;;;;43.65;28.50;;;12.80;92.50;;;;;;4923524;29;20076;-57
2022/03/22 09:27:56;;;;;;;41.72;27.77;;;13.00;91.90;;;;;;4926544;28;20047;-58
2022/03/22 09:30:23;;;;;;;46.00;29.05;;;13.20;91.10;;;;;;4923013;28;20047;-58
2022/03/22 09:32:50;;;;;;;41.90;27.75;;;13.30;90.80;;;;;;4921762;28;20051;-57
2022/03/22 09:35:19;;;;;;;43.65;28.85;;;13.50;90.70;;;;;;4923049;28;20055;-56
2022/03/22 09:37:46;;;;;;;50.40;29.13;;;13.60;90.40;;;;;;4925775;29;20053;-56
2022/03/22 09:40:15;;;;;;;39.25;28.02;;;13.60;90.00;;;;;;4926071;29;20234;-57
2022/03/22 09:42:42;;;;;;;43.95;28.63;;;13.80;90.00;;;;;;4921821;29;20039;-57
2022/03/22 09:45:14;;;;;;;44.13;29.23;;;14.00;89.30;;;;;;4923380;29;20058;-58
2022/03/22 09:47:42;;;;;;;42.00;28.02;;;14.20;88.70;;;;;;4924160;28;20483;-57
2022/03/22 09:50:09;;;;;;;40.20;26.98;;;14.30;88.00;;;;;;4921120;28;20044;-56
2022/03/22 09:52:36;;;;;;;44.08;27.23;;;14.40;87.20;;;;;;4928370;28;20410;-58
2022/03/22 09:55:03;;;;;;;44.45;29.23;;;14.50;86.20;;;;;;4923364;29;20066;-56
2022/03/22 09:57:29;;;;;;;43.08;28.95;;;14.60;83.80;;;;;;4923753;29;20126;-56
2022/03/22 09:59:55;;;;;;;41.10;27.50;;;14.70;83.10;;;;;;4925170;28;20170;-58
2022/03/22 10:02:32;;;;;;;39.03;26.63;;;14.80;83.10;;;;;;4922866;29;20043;-59
2022/03/22 10:04:59;;;;;;;39.72;27.33;;;15.00;81.60;;;;;;4921945;28;20130;-55
2022/03/22 10:07:27;;;;;;;43.45;27.25;;;15.10;81.60;;;;;;4923373;29;20047;-51
2022/03/22 10:09:58;;;;;;;41.40;26.88;;;15.30;80.80;;;;;;4923875;29;20044;-56
2022/03/22 10:12:32;;;;;;;45.03;26.80;;;15.40;80.10;;;;;;4924234;28;20047;-55
2022/03/22 10:15:08;;;;;;;43.13;27.20;;;15.50;79.10;;;;;;4924662;28;20482;-56
2022/03/22 10:17:35;;;;;;;45.05;27.00;;;15.70;78.70;;;;;;4923890;29;20162;-55
2022/03/22 10:20:01;;;;;;;38.20;25.13;;;15.90;78.80;;;;;;4921914;28;20457;-56
2022/03/22 10:22:27;;;;;;;42.38;26.55;;;16.00;77.40;;;;;;4935525;28;20055;-55
2022/03/22 10:24:58;;;;;;;40.72;27.02;;;16.20;75.90;;;;;;4929193;28;20879;-54
2022/03/22 10:27:34;;;;;;;38.35;24.60;;;16.30;75.40;;;;;;4928051;28;20057;-56
2022/03/22 10:30:03;;;;;;;40.47;25.63;;;16.40;75.10;;;;;;4928057;28;20047;-56
2022/03/22 10:32:41;;;;;;;47.63;26.02;;;16.60;75.30;;;;;;4927924;28;20047;-54
2022/03/22 10:35:10;;;;;;;42.33;26.60;;;16.80;74.50;;;;;;4925796;28;20062;-55
2022/03/22 10:37:38;;;;;;;44.95;27.35;;;16.90;73.30;;;;;;4927946;29;20035;-55
2022/03/22 10:40:25;;;;;;;37.80;26.30;;;17.10;72.80;;;;;;4923938;29;20066;-54
2022/03/22 10:42:53;;;;;;;44.22;27.95;;;17.20;72.60;;;;;;4920090;28;20537;-55
2022/03/22 10:45:19;;;;;;;42.33;25.95;;;17.40;71.70;;;;;;4923746;28;20071;-54
2022/03/22 10:47:45;;;;;;;40.60;25.42;;;17.50;71.70;;;;;;4916163;29;20055;-56
2022/03/22 10:50:11;;;;;;;41.40;26.10;;;17.50;70.40;;;;;;4926109;28;20047;-55
2022/03/22 10:52:49;;;;;;;42.85;24.55;;;17.70;70.20;;;;;;4929532;29;20043;-54
2022/03/22 10:55:19;;;;;;;38.63;24.35;;;17.90;69.30;;;;;;4929942;28;20142;-56
2022/03/22 10:57:51;;;;;;;35.28;23.05;;;18.00;69.60;;;;;;4933472;29;20483;-56
2022/03/22 11:00:18;;;;;;;39.22;23.70;;;18.20;69.70;;;;;;4929211;29;20047;-55
2022/03/22 11:02:48;;;;;;;41.38;23.60;;;18.40;68.40;;;;;;4919642;29;20509;-56
2022/03/22 11:05:15;;;;;;;36.22;23.15;;;18.50;67.60;;;;;;4923976;29;20055;-52
2022/03/22 11:07:43;;;;;;;38.45;22.85;;;18.60;67.30;;;;;;4926992;29;20094;-53
2022/03/22 11:10:09;;;;;;;39.05;24.08;;;18.70;67.00;;;;;;4923106;28;20062;-55
2022/03/22 11:12:35;;;;;;;45.97;25.02;;;18.90;66.00;;;;;;4930153;28;20179;-55
2022/03/22 11:15:03;;;;;;;38.03;23.00;;;19.00;65.40;;;;;;4927409;28;20047;-55
2022/03/22 11:17:35;;;;;;;35.28;22.70;;;19.00;64.80;;;;;;4928458;28;20615;-56
2022/03/22 11:20:08;;;;;;;33.60;21.58;;;19.20;64.40;;;;;;4922698;29;20557;-56
2022/03/22 11:22:33;;;;;;;41.60;23.35;;;19.30;63.40;;;;;;4927409;28;20098;-53
2022/03/22 11:25:10;;;;;;;48.35;22.90;;;19.40;63.80;;;;;;4931302;29;21171;-54
2022/03/22 11:27:37;;;;;;;37.22;21.20;;;19.60;63.30;;;;;;4929589;29;20078;-55
2022/03/22 11:30:04;;;;;;;32.70;20.90;;;19.70;62.80;;;;;;4932577;28;20043;-55
2022/03/22 11:35:17;;;;;;;32.50;20.15;;;20.00;62.20;;;;;;4929501;29;20059;-54
2022/03/22 11:37:55;;;;;;;32.33;20.80;;;20.20;61.90;;;;;;4932559;29;20401;-55
2022/03/22 11:43:11;;;;;;;33.00;19.25;;;20.50;60.70;;;;;;4932648;28;20043;-57
2022/03/22 11:45:50;;;;;;;32.53;19.63;;;20.60;59.70;;;;;;4927577;29;20498;-57
2022/03/22 11:48:17;;;;;;;34.13;20.95;;;20.80;60.00;;;;;;4929612;29;20051;-56
2022/03/22 11:50:46;;;;;;;31.92;21.35;;;21.00;59.50;;;;;;4926256;29;20557;-57
2022/03/22 11:53:22;;;;;;;36.08;21.15;;;21.10;58.40;;;;;;4927870;28;20399;-55
2022/03/22 11:55:53;;;;;;;37.70;22.30;;;21.10;58.80;;;;;;4925720;28;20597;-55
2022/03/22 11:58:26;;;;;;;36.92;21.55;;;21.30;57.90;;;;;;4928761;29;20486;-57
2022/03/22 12:00:57;;;;;;;34.50;21.02;;;21.30;57.40;;;;;;4920955;28;20087;-56
2022/03/22 12:03:29;;;;;;;36.13;21.42;;;21.40;56.70;;;;;;4924222;28;20146;-57
2022/03/22 12:05:55;;;;;;;34.20;20.90;;;21.50;57.00;;;;;;4923895;28;20490;-57
2022/03/22 12:08:25;;;;;;;30.20;19.85;;;21.60;56.90;;;;;;4927420;28;20712;-55
2022/03/22 12:10:52;;;;;;;37.55;20.70;;;21.60;56.60;;;;;;4923561;28;20154;-56
2022/03/22 12:13:19;;;;;;;32.17;21.00;;;21.70;55.80;;;;;;4923305;28;20058;-54
2022/03/22 12:15:45;;;;;;;32.80;20.30;;;21.80;55.70;;;;;;4916219;28;20043;-56
2022/03/22 12:18:12;;;;;;;39.00;20.98;;;21.80;55.00;;;;;;4920465;28;20549;-55
2022/03/22 12:20:39;;;;;;;30.75;19.85;;;21.90;54.50;;;;;;4924597;29;20054;-57
2022/03/22 12:23:06;;;;;;;34.03;20.10;;;21.90;54.50;;;;;;4925984;28;20522;-56
2022/03/22 12:25:34;;;;;;;37.65;20.13;;;22.00;54.60;;;;;;4926271;28;20047;-55
2022/03/22 12:28:08;;;;;;;32.83;20.55;;;22.20;54.30;;;;;;4923143;29;20268;-57
2022/03/22 12:30:36;;;;;;;33.33;20.08;;;22.30;54.20;;;;;;4925205;29;20054;-56
2022/03/22 12:33:13;;;;;;;31.77;19.60;;;22.40;53.60;;;;;;4924502;28;20501;-55
2022/03/22 12:35:43;;;;;;;35.80;19.60;;;22.60;54.30;;;;;;4925141;29;20059;-55
2022/03/22 12:38:10;;;;;;;31.88;20.05;;;22.70;53.80;;;;;;4925304;28;20058;-57
2022/03/22 12:40:37;;;;;;;30.23;19.55;;;22.80;54.00;;;;;;4937524;28;20047;-56
2022/03/22 12:43:04;;;;;;;31.55;19.98;;;22.90;53.30;;;;;;4922879;28;20482;-56
2022/03/22 12:45:33;;;;;;;34.90;20.42;;;23.10;52.50;;;;;;4922916;29;20087;-56
2022/03/22 12:48:00;;;;;;;33.35;20.25;;;23.10;51.90;;;;;;4929254;29;21146;-56
2022/03/22 12:50:27;;;;;;;32.05;21.20;;;23.20;52.00;;;;;;4924904;28;20051;-57
2022/03/22 12:52:54;;;;;;;31.23;18.85;;;23.30;51.40;;;;;;4924447;29;21090;-53
2022/03/22 12:55:22;;;;;;;36.75;20.48;;;23.30;51.90;;;;;;4925517;29;20113;-56
2022/03/22 12:57:51;;;;;;;29.30;19.58;;;23.40;52.20;;;;;;4931297;29;20051;-56
2022/03/22 13:00:39;;;;;;;29.98;18.65;;;23.60;51.20;;;;;;4926395;28;20055;-54
2022/03/22 13:03:13;;;;;;;35.10;20.17;;;23.70;51.80;;;;;;4926218;29;20055;-55
2022/03/22 13:05:51;;;;;;;33.67;20.77;;;23.80;51.90;;;;;;4924827;28;20055;-55
2022/03/22 13:08:21;;;;;;;31.25;20.73;;;23.90;51.40;;;;;;4931578;28;20054;-56